Metar Aeropuerto Ibiza
Pocas Nubes
Pocas Nubes
STATION : LEIB
METAR : 2018/09/21 06:00 LEIB 210600Z VRB01KT 9999 FEW018 19/19 Q1017 NOSIG
WINDMPH : varies at 1 mph
WIND : varies at 1 mph (2 km/h)
VISIBILITY : 6 miles (10 km)
CONDITIONS :
CLOUDS : Few Clouds
CLOUD-DETAILS : Few Clouds 1800 ft
TEMP : 66°F (19°C)
DEWPT : 66°F (19°C)
HUMIDITY : 100%
BAROMETER : 30.03 inHg (1017 hPa)
RAW-METAR : 2018/09/21 06:00 LEIB 210600Z VRB01KT 9999 FEW018 19/19 Q1017 NOSIG
 Publicidad